Time;durP1;ratioP1;P1;durP2;ratioP2;P2;SDS_P1;SDS_P2;PMS_P1;PMS_P2;Temp;Humidity;BMP_temperature;BMP_pressure;BME280_temperature;BME280_humidity;BME280_pressure;Samples;Min_cycle;Max_cycle;Signal;HPM_P1;HPM_P2
2024/04/16 00:01:51;;;;;;;1.50;1.40;;;;;;;10.44;57.45;98013.97;7376154;26;20233;-80
2024/04/16 00:05:14;;;;;;;1.67;1.57;;;;;;;10.44;57.18;98019.38;7375840;26;20264;-81
2024/04/16 00:08:35;;;;;;;2.03;1.50;;;;;;;9.92;58.26;98014.47;7375902;26;20230;-81
2024/04/16 00:11:58;;;;;;;1.63;1.50;;;;;;;9.72;58.61;98005.72;7375639;26;20281;-81
2024/04/16 00:15:18;;;;;;;1.50;1.40;;;;;;;10.12;57.59;98002.50;7375712;26;20225;-81
2024/04/16 00:18:44;;;;;;;1.50;1.40;;;;;;;9.61;58.38;97995.66;7374458;26;20288;-81
2024/04/16 00:22:05;;;;;;;1.40;1.30;;;;;;;9.91;58.06;98004.72;7373468;26;20317;-81
2024/04/16 00:25:28;;;;;;;1.23;1.23;;;;;;;10.05;56.94;97998.22;7357029;26;20250;-81
2024/04/16 00:28:49;;;;;;;1.63;1.53;;;;;;;10.46;56.46;98007.31;7326009;27;20718;-81
2024/04/16 00:32:13;;;;;;;2.00;1.80;;;;;;;10.70;54.99;97989.44;7334910;26;20249;-81
2024/04/16 00:35:42;;;;;;;1.40;1.30;;;;;;;10.17;56.03;97972.22;7373731;26;20276;-81
2024/04/16 00:39:03;;;;;;;2.20;1.50;;;;;;;9.94;57.00;97985.44;7373345;26;20248;-81
2024/04/16 00:42:26;;;;;;;1.63;1.53;;;;;;;9.63;58.74;97988.19;7373759;26;20373;-81
2024/04/16 00:45:49;;;;;;;3.07;1.67;;;;;;;10.10;56.55;97974.16;7373372;26;20225;-81
2024/04/16 00:49:13;;;;;;;1.63;1.53;;;;;;;10.26;56.29;97989.72;7372709;26;20817;-81
2024/04/16 00:52:36;;;;;;;3.50;1.63;;;;;;;10.09;55.67;97988.66;7372909;26;20237;-81
2024/04/16 00:56:00;;;;;;;3.40;2.00;;;;;;;10.26;55.18;97969.00;7373337;26;20274;-81
2024/04/16 00:59:20;;;;;;;1.73;1.63;;;;;;;10.37;55.17;97970.13;7377764;26;20230;-81
2024/04/16 01:02:43;;;;;;;1.60;1.50;;;;;;;10.13;56.58;97960.22;7378108;26;20286;-81
2024/04/16 01:06:04;;;;;;;1.90;1.70;;;;;;;10.36;55.39;97960.41;7378463;26;20268;-81
2024/04/16 01:09:30;;;;;;;1.60;1.50;;;;;;;10.52;54.83;97971.38;7377123;26;20226;-79
2024/04/16 01:12:51;;;;;;;2.10;1.97;;;;;;;10.13;55.87;97952.97;7377189;26;20226;-80
2024/04/16 01:16:14;;;;;;;3.00;1.87;;;;;;;10.28;55.36;97933.75;7379196;26;20219;-81
2024/04/16 01:19:37;;;;;;;3.73;1.90;;;;;;;10.08;55.43;97912.41;7376730;26;20241;-81
2024/04/16 01:23:03;;;;;;;1.60;1.50;;;;;;;9.89;56.71;97961.06;7376791;26;20288;-80
2024/04/16 01:26:26;;;;;;;1.73;1.63;;;;;;;9.67;57.19;97966.00;7337097;26;20231;-80
2024/04/16 01:29:47;;;;;;;2.07;1.83;;;;;;;9.72;56.54;97952.72;7331485;27;20236;-80
2024/04/16 01:33:10;;;;;;;1.60;1.50;;;;;;;10.09;55.45;97902.50;7353011;26;20354;-81
2024/04/16 01:36:30;;;;;;;2.77;1.70;;;;;;;9.94;56.41;97936.97;7379912;26;20226;-80
2024/04/16 01:39:56;;;;;;;1.63;1.53;;;;;;;9.95;55.95;97938.63;7379368;26;20320;-80
2024/04/16 01:43:17;;;;;;;2.27;1.70;;;;;;;9.72;56.63;97931.19;7380070;26;20790;-82
2024/04/16 01:46:40;;;;;;;1.70;1.60;;;;;;;9.84;56.81;97953.66;7380142;26;20230;-81
2024/04/16 01:50:03;;;;;;;3.37;1.67;;;;;;;10.23;55.31;97941.69;7379606;26;20759;-81
2024/04/16 01:53:26;;;;;;;1.60;1.50;;;;;;;9.97;56.03;97915.81;7370820;26;20261;-81
2024/04/16 01:56:52;;;;;;;2.10;1.50;;;;;;;10.34;54.87;97901.34;7370967;26;20276;-82
2024/04/16 02:00:12;;;;;;;1.93;1.70;;;;;;;10.35;55.01;97931.81;7377041;26;20712;-81
2024/04/16 02:03:36;;;;;;;3.53;1.97;;;;;;;10.74;53.89;97928.66;7360684;26;20280;-81
2024/04/16 02:06:56;;;;;;;2.60;1.70;;;;;;;10.53;54.10;97903.00;7377242;26;20261;-79
2024/04/16 02:10:19;;;;;;;2.83;1.77;;;;;;;10.46;53.95;97921.09;7376945;26;20235;-80
2024/04/16 02:13:42;;;;;;;3.73;2.23;;;;;;;9.95;55.84;97917.91;7377496;26;20233;-81
2024/04/16 02:17:06;;;;;;;4.83;2.40;;;;;;;10.28;55.02;97893.34;7376706;26;20222;-80
2024/04/16 02:20:29;;;;;;;5.20;2.30;;;;;;;9.50;57.38;97910.28;7377802;26;20242;-80
2024/04/16 02:23:52;;;;;;;3.27;1.93;;;;;;;9.53;57.30;97913.34;7362892;26;20283;-81
2024/04/16 02:27:13;;;;;;;7.83;2.00;;;;;;;9.85;55.71;97914.91;7356346;26;20234;-81
2024/04/16 02:30:39;;;;;;;2.77;1.90;;;;;;;10.39;54.85;97871.84;7375467;26;20601;-81
2024/04/16 02:34:02;;;;;;;2.63;1.90;;;;;;;10.34;54.33;97889.75;7375698;26;20249;-81
2024/04/16 02:37:23;;;;;;;2.80;1.73;;;;;;;10.18;55.63;97899.28;7375069;26;20226;-82
2024/04/16 02:40:46;;;;;;;3.60;1.90;;;;;;;10.29;54.85;97901.22;7376645;26;20242;-81
2024/04/16 02:44:09;;;;;;;2.17;1.73;;;;;;;10.53;53.95;97873.34;7375424;26;20242;-81
2024/04/16 02:47:35;;;;;;;2.13;1.90;;;;;;;9.97;55.59;97899.66;7375163;26;20269;-81
2024/04/16 02:51:00;;;;;;;3.80;2.13;;;;;;;10.23;54.66;97901.28;7375759;26;20242;-81
2024/04/16 02:54:21;;;;;;;4.20;1.90;;;;;;;10.31;55.03;97915.28;7375518;26;20238;-81
2024/04/16 02:57:44;;;;;;;3.00;1.83;;;;;;;10.73;54.61;97925.13;7374833;26;20334;-80
2024/04/16 03:01:05;;;;;;;5.70;2.00;;;;;;;10.11;56.37;97922.72;7375783;26;20234;-81
2024/04/16 03:04:31;;;;;;;3.10;2.00;;;;;;;9.87;57.77;97918.19;7375304;26;20350;-80
2024/04/16 03:07:54;;;;;;;3.93;2.10;;;;;;;10.30;57.83;97924.41;7374989;26;20225;-80
2024/04/16 03:11:14;;;;;;;5.63;2.23;;;;;;;10.46;56.97;97928.38;7376004;26;20230;-82
2024/04/16 03:14:37;;;;;;;4.73;2.40;;;;;;;10.12;57.56;97902.03;7375560;26;20242;-81
2024/04/16 03:17:58;;;;;;;7.87;4.77;;;;;;;9.96;57.64;97910.66;7374870;26;20268;-81
2024/04/16 03:21:24;;;;;;;2.30;2.10;;;;;;;9.22;60.32;97909.88;7374642;26;20238;-81
2024/04/16 03:24:44;;;;;;;2.40;2.00;;;;;;;9.84;58.60;97923.19;7375746;26;20242;-81
2024/04/16 03:28:08;;;;;;;3.60;2.10;;;;;;;9.04;59.27;97920.56;7374564;26;20575;-81
2024/04/16 03:31:31;;;;;;;3.83;2.50;;;;;;;9.61;58.70;97904.16;7375719;26;20234;-81
2024/04/16 03:34:54;;;;;;;5.67;2.17;;;;;;;9.48;58.55;97888.97;7375191;26;20237;-81
2024/04/16 03:38:20;;;;;;;3.40;2.00;;;;;;;9.47;58.79;97916.91;7374657;26;20704;-81
2024/04/16 03:41:43;;;;;;;4.50;2.20;;;;;;;8.97;60.28;97914.41;7375253;26;20284;-81
2024/04/16 03:45:07;;;;;;;3.07;2.37;;;;;;;9.46;58.28;97911.75;7375129;26;20791;-82
2024/04/16 03:48:28;;;;;;;4.43;2.63;;;;;;;9.70;58.38;97916.31;7374474;26;20234;-82
2024/04/16 03:51:51;;;;;;;2.63;2.00;;;;;;;10.40;55.80;97927.38;7374514;26;20229;-81
2024/04/16 03:55:17;;;;;;;3.80;1.90;;;;;;;10.32;56.22;97929.56;7374704;26;20716;-82
2024/04/16 03:58:44;;;;;;;3.03;1.97;;;;;;;10.10;57.11;97931.88;7374275;26;20576;-82
2024/04/16 04:02:07;;;;;;;2.90;2.17;;;;;;;10.15;56.82;97937.41;7374704;26;20253;-80
2024/04/16 04:05:30;;;;;;;4.67;2.40;;;;;;;10.30;56.35;97943.28;7374783;26;20241;-82
2024/04/16 04:08:53;;;;;;;4.53;2.10;;;;;;;10.03;56.63;97941.06;7374024;26;20226;-82
2024/04/16 04:12:19;;;;;;;3.50;2.00;;;;;;;9.85;56.72;97936.44;7374569;26;20234;-82
2024/04/16 04:15:40;;;;;;;3.47;1.90;;;;;;;10.27;56.64;97956.38;7374599;26;20722;-81
2024/04/16 04:19:03;;;;;;;2.37;1.90;;;;;;;10.34;55.31;97939.06;7373593;26;20238;-82
2024/04/16 04:22:26;;;;;;;2.23;2.00;;;;;;;9.98;57.00;97948.97;7374079;26;20628;-82
2024/04/16 04:25:47;;;;;;;4.17;2.10;;;;;;;9.62;56.59;97914.69;7367587;26;20349;-79
2024/04/16 04:29:13;;;;;;;3.60;1.70;;;;;;;10.37;56.11;97922.47;7353772;26;20243;-80
2024/04/16 04:32:36;;;;;;;1.87;1.70;;;;;;;10.29;55.82;97930.00;7353088;26;20296;-80
2024/04/16 04:36:01;;;;;;;2.70;1.90;;;;;;;10.31;55.47;97919.81;7372284;26;20238;-80
2024/04/16 04:39:22;;;;;;;2.97;2.30;;;;;;;10.53;55.23;97946.13;7376691;26;20308;-79
2024/04/16 04:42:45;;;;;;;3.20;1.97;;;;;;;10.32;55.04;97913.38;7377727;26;20262;-84
2024/04/16 04:46:11;;;;;;;2.70;2.30;;;;;;;10.43;55.91;97932.34;7379134;26;20242;-83
2024/04/16 04:49:34;;;;;;;2.07;1.97;;;;;;;10.64;55.11;97941.81;7377494;26;20249;-82
2024/04/16 04:52:57;;;;;;;3.90;1.90;;;;;;;10.28;55.77;97952.63;7360041;26;20246;-82
2024/04/16 04:56:20;;;;;;;3.97;2.00;;;;;;;10.22;55.90;97940.03;7352948;26;20235;-82
2024/04/16 04:59:43;;;;;;;3.40;2.03;;;;;;;10.45;56.00;97953.69;7347532;26;20238;-82
2024/04/16 05:03:09;;;;;;;4.53;1.87;;;;;;;10.54;55.64;97953.16;7356762;26;20741;-82
2024/04/16 05:06:33;;;;;;;3.50;1.93;;;;;;;10.60;55.38;97959.50;7380053;26;20226;-82
2024/04/16 05:09:53;;;;;;;3.00;1.90;;;;;;;10.56;54.99;97945.66;7378556;26;20238;-80
2024/04/16 05:13:16;;;;;;;3.17;2.07;;;;;;;10.14;56.98;97975.34;7375724;26;20230;-79
2024/04/16 05:16:40;;;;;;;3.27;1.83;;;;;;;10.43;56.23;97983.53;7375519;26;20240;-79
2024/04/16 05:20:07;;;;;;;3.53;1.93;;;;;;;10.25;57.01;97975.44;7374671;26;20284;-82
2024/04/16 05:23:30;;;;;;;2.10;1.90;;;;;;;10.64;55.40;97966.09;7376144;26;20284;-80
2024/04/16 05:26:53;;;;;;;1.73;1.63;;;;;;;10.45;55.55;97967.16;7376289;26;20225;-81
2024/04/16 05:30:16;;;;;;;3.70;1.90;;;;;;;9.85;57.21;97971.44;7376997;26;20293;-82
2024/04/16 05:33:39;;;;;;;2.20;2.00;;;;;;;10.07;56.92;97982.66;7376981;26;20281;-83
2024/04/16 05:37:05;;;;;;;1.73;1.63;;;;;;;10.22;55.62;97989.34;7377525;26;20260;-81
2024/04/16 05:40:29;;;;;;;3.10;1.83;;;;;;;9.92;56.22;97996.44;7375821;26;20229;-79
2024/04/16 05:43:52;;;;;;;1.87;1.73;;;;;;;10.50;55.65;98002.34;7374967;26;20740;-80
2024/04/16 05:47:12;;;;;;;3.50;2.20;;;;;;;10.58;53.69;97983.97;7373785;26;20265;-79
2024/04/16 05:50:35;;;;;;;3.07;2.00;;;;;;;10.40;54.02;97989.34;7374902;26;20234;-80
2024/04/16 05:54:06;;;;;;;4.00;2.10;;;;;;;10.57;53.84;97989.59;7374805;26;20231;-80
2024/04/16 05:57:26;;;;;;;2.93;1.73;;;;;;;10.60;53.93;97989.13;7361521;26;20260;-78
2024/04/16 06:00:50;;;;;;;5.37;2.30;;;;;;;10.79;51.91;98005.09;7375755;26;20263;-80
2024/04/16 06:04:13;;;;;;;4.50;2.10;;;;;;;11.25;52.09;98002.63;7375848;26;20222;-81
2024/04/16 06:07:33;;;;;;;5.07;1.97;;;;;;;10.99;52.09;97997.56;7365581;26;20231;-82
2024/04/16 06:10:59;;;;;;;4.33;2.00;;;;;;;11.28;51.24;97985.97;7344518;26;20246;-80
2024/04/16 06:14:22;;;;;;;7.23;2.27;;;;;;;11.67;49.90;98007.00;7350943;26;20393;-80
2024/04/16 06:17:46;;;;;;;5.60;2.20;;;;;;;11.73;50.08;98007.94;7376072;26;20222;-80
2024/04/16 06:21:09;;;;;;;6.33;2.27;;;;;;;11.56;49.78;98004.25;7376016;26;20795;-82
2024/04/16 06:24:29;;;;;;;5.80;2.50;;;;;;;11.12;51.27;98008.22;7374234;26;20243;-78
2024/04/16 06:27:56;;;;;;;3.77;2.23;;;;;;;11.08;50.84;97990.81;7372045;26;20222;-81
2024/04/16 06:31:19;;;;;;;4.97;2.23;;;;;;;11.97;49.24;98006.94;7374053;26;20247;-78
2024/04/16 06:34:39;;;;;;;3.50;2.10;;;;;;;11.74;49.85;97985.31;7373726;26;20256;-78
2024/04/16 06:38:03;;;;;;;4.43;2.27;;;;;;;12.06;49.58;97994.75;7373113;26;20218;-78
2024/04/16 06:41:23;;;;;;;12.33;2.90;;;;;;;12.13;47.60;97977.38;7373301;26;20322;-77
2024/04/16 06:44:49;;;;;;;4.67;2.13;;;;;;;12.40;48.77;97986.63;7373278;26;20264;-76
2024/04/16 06:48:09;;;;;;;3.57;1.93;;;;;;;12.65;47.95;97984.50;7372825;26;20281;-78
2024/04/16 06:51:33;;;;;;;6.63;2.50;;;;;;;12.70;47.65;97968.34;7374313;26;20256;-79
2024/04/16 06:54:56;;;;;;;5.03;2.60;;;;;;;12.98;47.65;97949.50;7362794;26;20277;-79
2024/04/16 06:58:19;;;;;;;5.00;2.30;;;;;;;13.30;47.54;97961.50;7373209;26;20236;-79
2024/04/16 07:01:45;;;;;;;5.70;2.33;;;;;;;13.04;46.83;97953.94;7379672;26;20270;-86
2024/04/16 07:05:06;;;;;;;5.60;2.70;;;;;;;13.36;45.29;97960.53;7380084;26;20287;-81
2024/04/16 07:08:29;;;;;;;5.70;2.30;;;;;;;14.35;44.49;97949.72;7377305;26;20269;-80
2024/04/16 07:11:52;;;;;;;6.53;2.10;;;;;;;14.45;41.83;97932.78;7366710;26;20240;-80
2024/04/16 07:15:15;;;;;;;9.07;2.67;;;;;;;13.73;44.18;97944.63;7374539;26;20828;-81
2024/04/16 07:18:41;;;;;;;4.90;2.90;;;;;;;13.80;43.79;97953.44;7373245;26;20238;-80
2024/04/16 07:22:02;;;;;;;2.80;2.03;;;;;;;13.49;45.25;97937.72;7374362;26;20363;-82
2024/04/16 07:25:25;;;;;;;7.67;3.07;;;;;;;12.65;46.18;97949.34;7369720;26;20233;-80
2024/04/16 07:28:46;;;;;;;2.90;2.10;;;;;;;13.90;45.49;97930.03;7337381;26;20242;-80
2024/04/16 07:32:09;;;;;;;6.73;2.60;;;;;;;14.07;43.62;97941.69;7367032;26;20289;-80
2024/04/16 07:35:35;;;;;;;4.77;2.20;;;;;;;14.34;43.67;97931.00;7374896;26;20701;-83
2024/04/16 07:38:55;;;;;;;4.67;2.33;;;;;;;14.27;43.97;97942.00;7351507;26;20239;-79
2024/04/16 07:42:18;;;;;;;3.80;2.07;;;;;;;13.75;43.12;97942.50;7326638;27;20304;-83
2024/04/16 07:45:41;;;;;;;4.73;2.00;;;;;;;14.11;43.15;97929.25;7326504;26;20224;-80
2024/04/16 07:49:05;;;;;;;6.93;2.73;;;;;;;14.67;40.07;97939.00;7326416;27;20730;-82
2024/04/16 07:52:28;;;;;;;7.63;2.20;;;;;;;14.05;39.89;97913.19;7326870;26;20783;-82
2024/04/16 07:55:51;;;;;;;3.80;1.97;;;;;;;13.36;40.54;97944.28;7327901;27;20219;-80
2024/04/16 07:59:12;;;;;;;5.07;2.13;;;;;;;13.32;40.58;97929.56;7326274;27;20228;-82
2024/04/16 08:02:35;;;;;;;4.27;1.83;;;;;;;13.77;39.67;97922.25;7326375;26;20239;-82
2024/04/16 08:05:58;;;;;;;7.40;2.13;;;;;;;14.09;38.90;97888.03;7328768;27;20230;-81
2024/04/16 08:09:22;;;;;;;3.17;1.80;;;;;;;14.61;37.78;97893.91;7330844;26;20301;-81
2024/04/16 08:12:45;;;;;;;4.20;2.23;;;;;;;14.62;37.35;97885.53;7332196;27;20260;-81
2024/04/16 08:16:08;;;;;;;3.47;2.00;;;;;;;14.32;36.64;97887.00;7364354;26;20245;-81
2024/04/16 08:19:29;;;;;;;6.23;1.90;;;;;;;14.59;36.91;97894.19;7375257;26;20582;-83
2024/04/16 08:22:52;;;;;;;4.13;2.10;;;;;;;14.48;35.99;97883.44;7379473;26;20772;-82
2024/04/16 08:26:15;;;;;;;4.00;2.00;;;;;;;14.38;36.08;97902.28;7379249;26;20222;-81
2024/04/16 08:29:38;;;;;;;4.30;2.43;;;;;;;14.71;35.44;97904.88;7378598;26;20248;-81
2024/04/16 08:32:59;;;;;;;2.80;1.70;;;;;;;14.13;35.75;97872.09;7379210;26;20224;-82
2024/04/16 08:36:22;;;;;;;5.40;2.30;;;;;;;14.47;36.30;97882.63;7377968;26;20262;-82
2024/04/16 08:39:45;;;;;;;4.37;2.10;;;;;;;14.92;36.36;97872.31;7378212;26;20623;-80
2024/04/16 08:43:09;;;;;;;6.40;2.40;;;;;;;14.65;35.96;97879.59;7379056;26;20786;-82
2024/04/16 08:46:32;;;;;;;3.63;1.67;;;;;;;14.84;36.54;97894.47;7378496;26;20268;-81
2024/04/16 08:49:54;;;;;;;3.53;1.80;;;;;;;14.21;36.40;97905.03;7377985;26;20251;-82
2024/04/16 08:53:17;;;;;;;2.20;1.57;;;;;;;14.72;35.50;97909.25;7375179;26;20345;-80
2024/04/16 08:56:55;;;;;;;3.83;1.67;;;;;;;14.56;34.78;97888.41;7378044;26;20331;-85
2024/04/16 09:00:23;;;;;;;2.47;1.70;;;;;;;14.44;35.38;97906.69;7186359;27;20272;-82
2024/04/16 09:03:49;;;;;;;2.77;1.60;;;;;;;14.22;35.81;97890.41;7187046;27;20258;-81
2024/04/16 09:07:13;;;;;;;4.50;1.67;;;;;;;13.78;36.29;97895.94;7185949;27;20231;-82
2024/04/16 09:10:33;;;;;;;2.27;1.87;;;;;;;14.00;36.39;97883.28;7186835;27;20737;-82
2024/04/16 09:13:57;;;;;;;2.07;1.80;;;;;;;14.11;36.79;97896.72;7212850;27;20240;-81
2024/04/16 09:17:20;;;;;;;6.17;1.87;;;;;;;15.30;35.46;97877.59;7230217;27;20228;-81
2024/04/16 09:20:50;;;;;;;5.40;2.13;;;;;;;15.57;34.27;97851.22;7231947;27;20711;-81
2024/04/16 09:24:11;;;;;;;2.60;1.47;;;;;;;15.20;34.44;97885.63;7197104;27;20356;-79
2024/04/16 09:27:34;;;;;;;2.90;1.63;;;;;;;14.95;35.15;97879.13;7185838;27;20236;-80
2024/04/16 09:30:55;;;;;;;4.67;1.47;;;;;;;15.69;33.60;97865.44;7184844;27;20252;-81
2024/04/16 09:34:21;;;;;;;3.20;1.73;;;;;;;14.93;34.53;97886.72;7185406;27;20272;-79
2024/04/16 09:37:44;;;;;;;2.67;1.63;;;;;;;15.12;35.40;97885.28;7322387;26;20225;-80
2024/04/16 09:41:08;;;;;;;3.73;1.73;;;;;;;15.04;34.95;97875.69;7376296;26;20271;-81
2024/04/16 09:44:30;;;;;;;4.23;1.50;;;;;;;14.86;35.48;97872.53;7376602;26;20259;-79
2024/04/16 09:47:54;;;;;;;4.77;1.97;;;;;;;15.28;34.44;97857.19;7351283;26;20242;-81
2024/04/16 09:51:20;;;;;;;4.17;2.03;;;;;;;15.45;34.23;97856.03;7328382;26;20725;-79
2024/04/16 09:54:41;;;;;;;6.47;1.80;;;;;;;15.51;33.94;97848.75;7328388;27;20231;-79
2024/04/16 09:58:05;;;;;;;8.30;3.90;;;;;;;15.01;35.00;97840.94;7327632;27;20225;-79
2024/04/16 10:01:29;;;;;;;3.67;1.50;;;;;;;14.79;34.79;97842.84;7334769;26;20240;-80
2024/04/16 10:04:52;;;;;;;4.20;2.00;;;;;;;15.32;35.95;97863.72;7366607;26;20786;-79
2024/04/16 10:08:18;;;;;;;5.50;1.60;;;;;;;13.84;37.16;97878.69;7327401;27;20271;-78
2024/04/16 10:11:42;;;;;;;4.70;1.70;;;;;;;13.16;39.29;97872.72;7328091;26;20236;-78
2024/04/16 10:15:06;;;;;;;2.80;1.40;;;;;;;13.75;38.47;97861.25;7328035;27;20233;-78
2024/04/16 10:18:29;;;;;;;1.70;1.40;;;;;;;14.04;37.52;97846.50;7341018;26;20282;-80
2024/04/16 10:21:50;;;;;;;3.60;2.07;;;;;;;13.94;37.90;97852.59;7374770;26;20298;-80
2024/04/16 10:25:15;;;;;;;1.70;1.53;;;;;;;14.41;37.51;97872.78;7376167;26;20230;-79
2024/04/16 10:28:42;;;;;;;3.70;1.67;;;;;;;14.33;37.26;97867.78;7374951;26;20364;-80
2024/04/16 10:32:02;;;;;;;9.57;2.10;;;;;;;13.86;38.38;97866.56;7374332;26;20301;-79
2024/04/16 10:35:25;;;;;;;3.63;1.37;;;;;;;13.80;37.96;97847.78;7375198;26;20245;-79
2024/04/16 10:38:46;;;;;;;2.70;1.20;;;;;;;13.58;39.23;97850.41;7347935;26;20244;-81
2024/04/16 10:42:12;;;;;;;2.07;1.93;;;;;;;13.91;39.27;97844.97;7330753;26;20358;-81
2024/04/16 10:45:36;;;;;;;3.80;1.50;;;;;;;14.15;39.29;97853.69;7373130;26;20285;-82
2024/04/16 10:48:56;;;;;;;2.43;1.50;;;;;;;14.08;39.33;97878.28;7375916;26;20219;-79
2024/04/16 10:52:22;;;;;;;1.50;1.40;;;;;;;13.49;41.79;97867.31;7376228;26;20253;-79
2024/04/16 10:55:45;;;;;;;3.17;1.47;;;;;;;13.52;41.03;97861.41;7376997;26;20229;-80
2024/04/16 10:59:14;;;;;;;4.20;1.37;;;;;;;13.60;40.31;97851.00;7374664;26;20267;-80
2024/04/16 11:02:35;;;;;;;2.07;1.40;;;;;;;13.49;40.47;97849.19;7374290;26;20268;-79
2024/04/16 11:05:58;;;;;;;1.43;1.30;;;;;;;13.97;39.84;97841.25;7374159;26;20237;-79
2024/04/16 11:09:22;;;;;;;3.30;1.60;;;;;;;14.16;38.93;97826.31;7357188;26;20223;-80
2024/04/16 11:12:42;;;;;;;1.60;1.50;;;;;;;14.52;39.22;97811.34;7375666;26;20233;-79
2024/04/16 11:16:09;;;;;;;1.73;1.33;;;;;;;15.00;38.96;97816.75;7375590;26;20259;-81
2024/04/16 11:19:29;;;;;;;2.30;1.40;;;;;;;14.89;38.94;97826.69;7373465;26;20741;-79
2024/04/16 11:22:53;;;;;;;2.37;1.53;;;;;;;14.60;39.03;97817.16;7374392;26;20333;-79
2024/04/16 11:26:16;;;;;;;3.53;1.67;;;;;;;14.49;39.08;97831.66;7374756;26;20265;-79
2024/04/16 11:29:49;;;;;;;2.50;1.30;;;;;;;14.72;39.47;97833.28;7334191;26;20247;-79
2024/04/16 11:33:14;;;;;;;2.97;1.30;;;;;;;14.11;40.97;97830.88;7327554;27;20599;-80
2024/04/16 11:36:35;;;;;;;4.43;1.50;;;;;;;14.29;41.66;97850.38;7327658;27;20273;-79
2024/04/16 11:39:58;;;;;;;1.20;1.10;;;;;;;14.74;40.07;97833.84;7378161;26;20252;-83
2024/04/16 11:43:24;;;;;;;1.37;1.27;;;;;;;15.21;39.35;97854.69;7375905;26;20226;-78
2024/04/16 11:46:47;;;;;;;1.70;1.10;;;;;;;14.54;40.04;97839.88;7332483;26;20239;-79
2024/04/16 11:50:11;;;;;;;1.70;1.40;;;;;;;15.02;39.31;97831.69;7326813;26;20245;-79
2024/04/16 11:53:34;;;;;;;1.67;1.00;;;;;;;14.59;39.81;97847.22;7326121;27;20569;-79
2024/04/16 11:56:54;;;;;;;2.23;1.20;;;;;;;14.51;39.00;97834.94;7327969;27;20270;-80
2024/04/16 12:00:18;;;;;;;1.60;1.10;;;;;;;14.42;38.66;97831.03;7347989;26;20303;-81
2024/04/16 12:03:41;;;;;;;2.63;1.30;;;;;;;13.79;39.78;97824.44;7376456;26;20231;-80
2024/04/16 12:07:07;;;;;;;2.10;1.20;;;;;;;13.47;40.73;97854.03;7377372;26;20220;-80
2024/04/16 12:10:32;;;;;;;1.30;1.20;;;;;;;13.93;41.17;97834.69;7378250;26;20578;-82
2024/04/16 12:13:57;;;;;;;1.50;1.40;;;;;;;13.73;40.84;97842.53;7378382;26;20278;-82
2024/04/16 12:17:20;;;;;;;1.67;1.10;;;;;;;14.30;41.10;97843.06;7377798;26;20361;-81
2024/04/16 12:20:41;;;;;;;2.97;1.20;;;;;;;13.93;42.30;97833.88;7377794;26;20281;-81
2024/04/16 12:24:07;;;;;;;1.87;1.23;;;;;;;13.97;40.46;97822.28;7393157;26;20305;-81
2024/04/16 12:27:30;;;;;;;1.30;1.20;;;;;;;14.92;38.95;97830.78;7372655;26;20232;-80
2024/04/16 12:30:54;;;;;;;1.30;1.20;;;;;;;14.93;39.33;97816.94;7352906;26;20241;-84
2024/04/16 12:34:17;;;;;;;1.20;1.10;;;;;;;14.90;39.70;97822.91;7361566;26;20283;-81
2024/04/16 12:37:37;;;;;;;3.13;1.40;;;;;;;14.84;39.60;97823.91;7373921;26;20240;-83
2024/04/16 12:41:03;;;;;;;1.33;1.23;;;;;;;14.92;39.17;97844.34;7374571;26;20920;-81
2024/04/16 12:44:26;;;;;;;2.57;1.40;;;;;;;14.69;38.32;97821.03;7374621;26;20270;-81
2024/04/16 12:47:50;;;;;;;1.40;1.30;;;;;;;14.83;38.21;97807.88;7372387;26;20224;-82
2024/04/16 12:51:13;;;;;;;1.97;1.27;;;;;;;14.89;37.80;97818.56;7373741;26;20248;-80
2024/04/16 12:54:35;;;;;;;2.40;1.57;;;;;;;15.00;38.12;97806.72;7377727;26;20231;-83
2024/04/16 12:58:01;;;;;;;2.73;1.60;;;;;;;15.43;37.05;97790.28;7378168;26;20282;-81
2024/04/16 13:01:24;;;;;;;1.60;1.40;;;;;;;15.34;37.56;97793.72;7336129;26;20618;-82
2024/04/16 13:04:49;;;;;;;2.90;1.60;;;;;;;15.35;37.51;97716.59;7367576;26;20244;-82
2024/04/16 13:08:12;;;;;;;2.40;1.87;;;;;;;15.49;37.38;97767.50;7343358;26;20244;-82
2024/04/16 13:11:33;;;;;;;1.43;1.33;;;;;;;15.61;37.25;97770.00;7366457;26;20276;-82
2024/04/16 13:14:59;;;;;;;1.50;1.40;;;;;;;15.48;37.86;97767.75;7331697;26;20235;-84
2024/04/16 13:18:22;;;;;;;2.83;1.40;;;;;;;15.69;37.43;97775.78;7357844;26;20238;-82
2024/04/16 13:21:45;;;;;;;1.60;1.23;;;;;;;15.26;37.45;97759.69;7342293;26;20599;-82
2024/04/16 13:25:06;;;;;;;1.53;1.30;;;;;;;15.93;37.28;97770.75;7353351;26;20825;-82
2024/04/16 13:28:29;;;;;;;1.23;1.17;;;;;;;16.66;36.33;97749.59;7329134;26;20285;-82
2024/04/16 13:31:52;;;;;;;1.57;1.10;;;;;;;17.28;33.77;97727.56;7346874;26;20304;-82
2024/04/16 13:35:16;;;;;;;1.07;1.00;;;;;;;16.94;34.66;97742.81;7355440;26;20351;-82
2024/04/16 13:38:39;;;;;;;1.40;1.10;;;;;;;16.54;35.06;97738.13;7375309;26;20265;-80
2024/04/16 13:42:02;;;;;;;2.07;1.17;;;;;;;16.39;36.30;97727.19;7374594;26;20295;-82
2024/04/16 13:45:25;;;;;;;1.30;1.20;;;;;;;15.96;36.38;97743.03;7379392;26;20288;-82
2024/04/16 13:48:48;;;;;;;1.53;1.17;;;;;;;16.10;37.04;97755.09;7376312;26;20238;-81
2024/04/16 13:52:12;;;;;;;1.67;1.20;;;;;;;16.13;37.59;97727.34;7365112;26;20250;-81
2024/04/16 13:55:32;;;;;;;1.13;1.10;;;;;;;17.12;36.51;97718.59;7353275;26;20280;-81
2024/04/16 13:58:57;;;;;;;1.17;1.17;;;;;;;17.54;34.93;97732.75;7349187;26;20235;-82
2024/04/16 14:02:20;;;;;;;1.10;1.00;;;;;;;16.90;35.89;97719.94;7357140;26;20385;-84
2024/04/16 14:05:44;;;;;;;1.07;1.07;;;;;;;15.84;36.88;97713.38;7360680;26;20557;-82
2024/04/16 14:09:07;;;;;;;2.43;1.40;;;;;;;15.97;36.91;97721.03;7350112;26;20225;-82
2024/04/16 14:12:32;;;;;;;1.97;1.50;;;;;;;16.37;36.99;97736.66;7350310;26;20245;-81
2024/04/16 14:15:55;;;;;;;3.47;1.30;;;;;;;16.88;35.50;97730.28;7350685;26;20281;-82
2024/04/16 14:19:15;;;;;;;0.90;0.90;;;;;;;16.05;35.80;97727.88;7349001;26;20238;-82
2024/04/16 14:22:41;;;;;;;1.00;1.00;;;;;;;16.26;36.57;97722.22;7363594;26;20303;-81
2024/04/16 14:26:05;;;;;;;1.27;1.07;;;;;;;16.92;35.48;97729.47;7357644;26;20786;-82
2024/04/16 14:29:30;;;;;;;1.43;1.30;;;;;;;16.53;35.77;97708.47;7354627;26;20242;-81
2024/04/16 14:32:53;;;;;;;1.10;1.10;;;;;;;16.41;36.51;97713.31;7360214;26;20226;-85
2024/04/16 14:36:16;;;;;;;1.23;1.13;;;;;;;17.00;34.85;97704.44;7352205;26;20269;-84
2024/04/16 14:39:42;;;;;;;1.87;1.30;;;;;;;16.82;36.33;97715.03;7366639;26;20265;-82
2024/04/16 14:43:05;;;;;;;1.10;1.00;;;;;;;17.03;35.34;97701.16;7348239;26;20284;-82
2024/04/16 14:46:28;;;;;;;1.23;1.13;;;;;;;17.24;34.46;97697.34;7351692;26;20238;-81
2024/04/16 14:49:49;;;;;;;1.30;1.20;;;;;;;16.68;35.11;97703.06;7345050;26;20282;-81
2024/04/16 14:53:13;;;;;;;1.47;1.20;;;;;;;16.40;35.16;97695.38;7354872;26;20243;-82
2024/04/16 14:56:39;;;;;;;1.60;1.20;;;;;;;15.76;35.94;97691.31;7356382;26;20277;-81
2024/04/16 14:59:59;;;;;;;1.30;1.20;;;;;;;16.24;36.10;97683.63;7347125;26;20332;-81
2024/04/16 15:03:23;;;;;;;2.13;1.73;;;;;;;17.04;36.16;97667.38;7368139;26;20236;-82
2024/04/16 15:06:54;;;;;;;1.20;1.10;;;;;;;17.09;34.60;97661.94;7360509;26;20284;-80
2024/04/16 15:10:17;;;;;;;2.03;1.17;;;;;;;16.99;35.03;97659.22;7357948;26;20292;-82
2024/04/16 15:13:43;;;;;;;1.30;1.20;;;;;;;16.62;35.76;97683.16;7362156;26;20229;-81
2024/04/16 15:17:03;;;;;;;3.07;1.40;;;;;;;16.44;36.47;97678.25;7356093;26;20242;-82
2024/04/16 15:20:27;;;;;;;2.13;1.30;;;;;;;16.80;35.39;97685.34;7353091;26;20241;-82
2024/04/16 15:23:50;;;;;;;7.17;1.40;;;;;;;16.64;35.75;97696.50;7348197;26;20260;-82
2024/04/16 15:27:13;;;;;;;1.40;1.30;;;;;;;16.36;36.24;97684.19;7355354;26;20236;-83
2024/04/16 15:30:36;;;;;;;2.33;1.20;;;;;;;15.62;37.00;97654.84;7328598;26;20286;-82
2024/04/16 15:33:59;;;;;;;1.90;1.20;;;;;;;15.42;37.39;97681.88;7327839;27;20629;-82
2024/04/16 15:37:20;;;;;;;1.33;1.23;;;;;;;15.57;37.59;97688.22;7354353;26;20598;-81
2024/04/16 15:40:43;;;;;;;1.37;1.27;;;;;;;15.29;37.70;97691.25;7375340;26;20250;-82
2024/04/16 15:44:07;;;;;;;1.23;1.13;;;;;;;14.97;38.45;97665.25;7357468;26;20285;-81
2024/04/16 15:47:30;;;;;;;3.30;1.30;;;;;;;15.68;38.39;97662.72;7335110;26;20246;-80
2024/04/16 15:50:53;;;;;;;1.33;1.23;;;;;;;16.35;37.17;97666.22;7372017;26;20304;-81
2024/04/16 15:54:16;;;;;;;1.63;1.40;;;;;;;16.42;37.39;97649.66;7351015;26;20351;-81
2024/04/16 15:57:39;;;;;;;1.73;1.40;;;;;;;16.46;37.53;97645.31;7353685;26;20235;-80